createdAt,value
2023-04-02T00:00:10.559Z,99459.84
2023-04-02T00:02:57.728Z,99456.03
2023-04-02T00:05:34.610Z,99458.34
2023-04-02T00:08:19.002Z,99467.09
2023-04-02T00:11:02.719Z,99472.03
2023-04-02T00:13:33.172Z,99481.63
2023-04-02T00:16:04.052Z,99478.19
2023-04-02T00:18:32.933Z,99482.78
2023-04-02T00:21:28.454Z,99499.31
2023-04-02T00:23:58.523Z,99496.50
2023-04-02T00:26:41.140Z,99501.78
2023-04-02T00:29:13.487Z,99510.84
2023-04-02T00:31:48.377Z,99506.91
2023-04-02T00:34:24.018Z,99510.47
2023-04-02T00:36:52.857Z,99510.31
2023-04-02T00:39:28.259Z,99524.31
2023-04-02T00:42:05.628Z,99519.22
2023-04-02T00:44:42.964Z,99525.53
2023-04-02T00:47:34.262Z,99529.59
2023-04-02T00:50:21.020Z,99536.88
2023-04-02T00:52:52.523Z,99545.81
2023-04-02T00:55:36.612Z,99539.91
2023-04-02T00:58:05.726Z,99549.97
2023-04-02T01:00:38.017Z,99558.19
2023-04-02T01:03:18.463Z,99552.88
2023-04-02T01:06:02.764Z,99555.69
2023-04-02T01:09:08.484Z,99562.75
2023-04-02T01:12:20.717Z,99570.16
2023-04-02T01:15:22.028Z,99578.19
2023-04-02T01:18:14.131Z,99584.31
2023-04-02T01:21:03.361Z,99585.81
2023-04-02T01:23:37.170Z,99588.94
2023-04-02T01:26:24.706Z,99593.09
2023-04-02T01:29:20.428Z,99599.38
2023-04-02T01:31:50.850Z,99606.78
2023-04-02T01:34:25.252Z,99601.94
2023-04-02T01:37:37.803Z,99618.22
2023-04-02T01:40:59.931Z,99623.38
2023-04-02T01:43:31.047Z,99628.06
2023-04-02T01:46:00.356Z,99635.38
2023-04-02T01:48:32.928Z,99636.25
2023-04-02T01:51:05.467Z,99640.34
2023-04-02T01:53:34.083Z,99661.38
2023-04-02T01:56:04.931Z,99649.00
2023-04-02T01:58:34.470Z,99645.75
2023-04-02T02:01:19.971Z,99664.53
2023-04-02T02:03:48.799Z,99669.38
2023-04-02T02:06:19.125Z,99669.19
2023-04-02T02:09:06.535Z,99668.97
2023-04-02T02:11:36.604Z,99668.28
2023-04-02T02:14:21.111Z,99675.66
2023-04-02T02:16:50.006Z,99674.34
2023-04-02T02:19:36.992Z,99680.88
2023-04-02T02:22:27.802Z,99693.22
2023-04-02T02:25:00.296Z,99692.78
2023-04-02T02:27:28.781Z,99704.44
2023-04-02T02:30:12.856Z,99717.81
2023-04-02T02:33:23.500Z,99720.19
2023-04-02T02:36:04.836Z,99717.69
2023-04-02T02:38:36.052Z,99723.63
2023-04-02T02:41:22.720Z,99728.72
2023-04-02T02:44:05.776Z,99739.44
2023-04-02T02:46:36.166Z,99736.56
2023-04-02T02:49:06.113Z,99749.16
2023-04-02T02:52:11.600Z,99745.97
2023-04-02T02:54:46.323Z,99752.81
2023-04-02T02:57:22.088Z,99758.13
2023-04-02T02:59:52.370Z,99755.69
2023-04-02T03:02:22.013Z,99762.47
2023-04-02T03:04:53.908Z,99757.38
2023-04-02T03:07:27.820Z,99772.53
2023-04-02T03:10:16.812Z,99777.22
2023-04-02T03:13:19.869Z,99778.91
2023-04-02T03:16:00.353Z,99800.38
2023-04-02T03:18:43.828Z,99797.25
2023-04-02T03:21:28.010Z,99803.72
2023-04-02T03:24:03.003Z,99796.81
2023-04-02T03:27:00.655Z,99820.00
2023-04-02T03:29:33.457Z,99816.38
2023-04-02T03:32:12.003Z,99822.06
2023-04-02T03:34:51.412Z,99827.91
2023-04-02T03:37:25.847Z,99826.78
2023-04-02T03:40:17.071Z,99829.03
2023-04-02T03:42:56.636Z,99840.91
2023-04-02T03:45:34.428Z,99843.72
2023-04-02T03:48:13.006Z,99851.47
2023-04-02T03:51:19.534Z,99858.69
2023-04-02T03:53:49.385Z,99861.06
2023-04-02T03:56:34.181Z,99869.25
2023-04-02T03:59:40.079Z,99879.22
2023-04-02T04:02:35.777Z,99887.00
2023-04-02T04:05:06.868Z,99903.63
2023-04-02T04:07:40.543Z,99902.00
2023-04-02T04:10:11.447Z,99912.94
2023-04-02T04:12:49.323Z,99915.97
2023-04-02T04:15:41.249Z,99922.78
2023-04-02T04:18:34.750Z,99939.53
2023-04-02T04:21:30.971Z,99939.81
2023-04-02T04:24:04.918Z,99945.34
2023-04-02T04:26:58.015Z,99969.47
2023-04-02T04:29:28.785Z,99962.69
2023-04-02T04:31:58.966Z,99966.84
2023-04-02T04:34:42.370Z,99968.53
2023-04-02T04:37:26.341Z,99972.94
2023-04-02T04:40:07.635Z,99979.19
2023-04-02T04:42:39.465Z,99990.72
2023-04-02T04:45:32.999Z,99998.47
2023-04-02T04:48:20.877Z,100001.25
2023-04-02T04:51:00.770Z,100005.69
2023-04-02T04:53:31.804Z,100021.59
2023-04-02T04:56:18.626Z,100021.31
2023-04-02T04:59:07.360Z,100031.06
2023-04-02T05:01:39.677Z,100032.28
2023-04-02T05:04:33.775Z,100037.00
2023-04-02T05:07:12.483Z,100044.44
2023-04-02T05:10:04.844Z,100062.22
2023-04-02T05:13:15.795Z,100062.38
2023-04-02T05:16:15.776Z,100068.31
2023-04-02T05:18:58.175Z,100083.56
2023-04-02T05:21:50.463Z,100084.13
2023-04-02T05:24:38.993Z,100095.63
2023-04-02T05:27:24.999Z,100102.00
2023-04-02T05:30:04.828Z,100101.31
2023-04-02T05:32:44.523Z,100108.50
2023-04-02T05:35:22.061Z,100117.66
2023-04-02T05:37:50.738Z,100115.16
2023-04-02T05:40:31.099Z,100117.53
2023-04-02T05:43:05.106Z,100126.53
2023-04-02T05:45:40.478Z,100139.81
2023-04-02T05:48:36.657Z,100142.72
2023-04-02T05:51:09.844Z,100152.38
2023-04-02T05:54:02.807Z,100159.25
2023-04-02T05:56:47.382Z,100168.53
2023-04-02T05:59:43.281Z,100166.75
2023-04-02T06:02:31.066Z,100173.56
2023-04-02T06:05:28.125Z,100164.69
2023-04-02T06:08:08.697Z,100176.38
2023-04-02T06:11:06.996Z,100179.31
2023-04-02T06:13:35.881Z,100181.25
2023-04-02T06:16:05.082Z,100191.53
2023-04-02T06:18:37.125Z,100192.47
2023-04-02T06:21:06.677Z,100209.25
2023-04-02T06:23:44.795Z,100205.97
2023-04-02T06:26:31.534Z,100214.56
2023-04-02T06:29:19.169Z,100224.41
2023-04-02T06:32:01.206Z,100219.13
2023-04-02T06:34:31.744Z,100250.88
2023-04-02T06:37:28.795Z,100242.72
2023-04-02T06:39:59.094Z,100255.91
2023-04-02T06:42:48.367Z,100249.53
2023-04-02T06:45:27.804Z,100254.50
2023-04-02T06:47:58.649Z,100264.50
2023-04-02T06:50:57.096Z,100265.94
2023-04-02T06:53:51.622Z,100286.03
2023-04-02T06:56:47.841Z,100299.16
2023-04-02T06:59:17.029Z,100289.59
2023-04-02T07:01:50.941Z,100299.16
2023-04-02T07:04:22.051Z,100302.19
2023-04-02T07:06:51.241Z,100303.03
2023-04-02T07:09:19.870Z,100323.78
2023-04-02T07:11:48.390Z,100318.53
2023-04-02T07:14:17.055Z,100322.44
2023-04-02T07:16:46.006Z,100315.47
2023-04-02T07:19:22.098Z,100326.66
2023-04-02T07:21:51.079Z,100328.25
2023-04-02T07:24:19.611Z,100325.19
2023-04-02T07:26:48.330Z,100338.78
2023-04-02T07:29:19.947Z,100347.53
2023-04-02T07:31:48.516Z,100340.09
2023-04-02T07:34:17.130Z,100351.22
2023-04-02T07:36:45.703Z,100353.38
2023-04-02T07:39:14.249Z,100360.19
2023-04-02T07:42:03.045Z,100371.78
2023-04-02T07:44:32.135Z,100380.59
2023-04-02T07:47:00.805Z,100381.69
2023-04-02T07:49:29.443Z,100389.28
2023-04-02T07:51:57.942Z,100391.75
2023-04-02T07:54:27.273Z,100384.59
2023-04-02T07:56:55.831Z,100390.28
2023-04-02T07:59:24.444Z,100400.78
2023-04-02T08:01:54.523Z,100398.41
2023-04-02T08:04:24.215Z,100399.09
2023-04-02T08:06:52.944Z,100407.16
2023-04-02T08:09:21.453Z,100411.19
2023-04-02T08:11:50.116Z,100423.22
2023-04-02T08:14:18.692Z,100426.63
2023-04-02T08:16:56.602Z,100429.50
2023-04-02T08:19:25.312Z,100437.81
2023-04-02T08:21:56.696Z,100437.34
2023-04-02T08:24:25.574Z,100442.25
2023-04-02T08:26:54.675Z,100453.22
2023-04-02T08:29:23.423Z,100448.03
2023-04-02T08:31:51.888Z,100451.69
2023-04-02T08:34:23.297Z,100459.72
2023-04-02T08:37:01.155Z,100469.38
2023-04-02T08:39:33.162Z,100469.91
2023-04-02T08:42:05.994Z,100470.44
2023-04-02T08:45:21.174Z,100475.41
2023-04-02T08:47:57.593Z,100487.31
2023-04-02T08:50:37.502Z,100479.66
2023-04-02T08:53:26.990Z,100487.56
2023-04-02T08:56:18.996Z,100489.38
2023-04-02T08:58:56.477Z,100493.00
2023-04-02T09:02:03.731Z,100497.59
2023-04-02T09:04:34.401Z,100502.50
2023-04-02T09:07:08.382Z,100499.88
2023-04-02T09:09:44.057Z,100504.53
2023-04-02T09:12:37.275Z,100506.50
2023-04-02T09:15:30.617Z,100518.38
2023-04-02T09:18:19.967Z,100514.00
2023-04-02T09:20:49.963Z,100519.28
2023-04-02T09:23:26.163Z,100523.03
2023-04-02T09:26:04.218Z,100547.50
2023-04-02T09:28:36.176Z,100542.81
2023-04-02T09:31:37.772Z,100543.19
2023-04-02T09:34:35.206Z,100543.41
2023-04-02T09:37:31.286Z,100545.91
2023-04-02T09:40:18.602Z,100552.44
2023-04-02T09:42:47.877Z,100556.13
2023-04-02T09:45:23.086Z,100557.41
2023-04-02T09:47:52.974Z,100567.63
2023-04-02T09:50:29.001Z,100566.69
2023-04-02T09:52:57.772Z,100569.53
2023-04-02T09:55:31.336Z,100582.91
2023-04-02T09:58:18.910Z,100587.97
2023-04-02T10:01:08.480Z,100585.22
2023-04-02T10:03:37.186Z,100595.69
2023-04-02T10:06:14.898Z,100599.53
2023-04-02T10:08:46.271Z,100609.69
2023-04-02T10:11:43.753Z,100608.00
2023-04-02T10:14:25.736Z,100607.94
2023-04-02T10:17:11.548Z,100613.81
2023-04-02T10:19:45.393Z,100612.00
2023-04-02T10:22:20.050Z,100616.38
2023-04-02T10:24:48.874Z,100617.28
2023-04-02T10:27:31.994Z,100627.19
2023-04-02T10:30:15.029Z,100627.97
2023-04-02T10:33:02.443Z,100631.50
2023-04-02T10:35:55.189Z,100638.91
2023-04-02T10:38:26.460Z,100642.78
2023-04-02T10:41:21.389Z,100652.38
2023-04-02T10:44:12.781Z,100651.56
2023-04-02T10:47:05.097Z,100658.97
2023-04-02T10:49:43.910Z,100659.72
2023-04-02T10:52:32.882Z,100663.19
2023-04-02T10:55:19.533Z,100672.88
2023-04-02T10:57:51.633Z,100671.69
2023-04-02T11:00:30.276Z,100676.78
2023-04-02T11:03:10.493Z,100667.63
2023-04-02T11:05:53.092Z,100675.59
2023-04-02T11:08:24.240Z,100680.41
2023-04-02T11:11:08.102Z,100680.16
2023-04-02T11:14:01.996Z,100685.19
2023-04-02T11:16:30.943Z,100681.53
2023-04-02T11:19:16.991Z,100693.56
2023-04-02T11:21:59.994Z,100698.84
2023-04-02T11:24:33.010Z,100700.50
2023-04-02T11:27:14.497Z,100704.47
2023-04-02T11:29:54.481Z,100703.41
2023-04-02T11:32:27.239Z,100710.63
2023-04-02T11:35:05.135Z,100710.38
2023-04-02T11:37:43.896Z,100721.22
2023-04-02T11:40:15.498Z,100728.63
2023-04-02T11:42:47.261Z,100714.56
2023-04-02T11:45:24.640Z,100723.19
2023-04-02T11:48:02.314Z,100729.63
2023-04-02T11:50:35.272Z,100724.09
2023-04-02T11:53:12.691Z,100726.09
2023-04-02T11:55:59.791Z,100725.16
2023-04-02T11:59:04.086Z,100735.63
2023-04-02T12:02:19.282Z,100741.66
2023-04-02T12:05:07.533Z,100735.63
2023-04-02T12:08:13.246Z,100744.16
2023-04-02T12:11:02.642Z,100748.91
2023-04-02T12:13:42.939Z,100749.31
2023-04-02T12:16:15.596Z,100748.47
2023-04-02T12:18:53.670Z,100759.47
2023-04-02T12:21:26.519Z,100749.59
2023-04-02T12:24:01.945Z,100755.16
2023-04-02T12:26:38.504Z,100758.91
2023-04-02T12:29:18.628Z,100766.31
2023-04-02T12:31:50.500Z,100762.81
2023-04-02T12:34:23.536Z,100757.88
2023-04-02T12:37:03.929Z,100760.25
2023-04-02T12:39:34.552Z,100768.06
2023-04-02T12:42:06.156Z,100777.00
2023-04-02T12:44:42.897Z,100770.47
2023-04-02T12:47:17.196Z,100770.72
2023-04-02T12:49:46.318Z,100777.88
2023-04-02T12:52:23.017Z,100773.25
2023-04-02T12:54:55.391Z,100773.28
2023-04-02T12:57:26.666Z,100779.31
2023-04-02T12:59:59.973Z,100778.88
2023-04-02T13:02:32.782Z,100779.44
2023-04-02T13:05:05.561Z,100776.53
2023-04-02T13:07:35.232Z,100783.78
2023-04-02T13:10:28.901Z,100780.44
2023-04-02T13:13:02.936Z,100784.47
2023-04-02T13:15:39.623Z,100791.44
2023-04-02T13:18:14.032Z,100788.38
2023-04-02T13:21:03.337Z,100792.16
2023-04-02T13:23:31.810Z,100807.06
2023-04-02T13:26:22.754Z,100808.47
2023-04-02T13:29:10.313Z,100810.72
2023-04-02T13:31:38.937Z,100799.84
2023-04-02T13:34:07.677Z,100806.50
2023-04-02T13:36:37.422Z,100810.28
2023-04-02T13:39:06.099Z,100820.59
2023-04-02T13:41:42.823Z,100822.84
2023-04-02T13:44:24.415Z,100815.59
2023-04-02T13:46:53.645Z,100820.75
2023-04-02T13:49:22.863Z,100824.78
2023-04-02T13:51:57.935Z,100820.59
2023-04-02T13:54:45.668Z,100819.75
2023-04-02T13:57:13.975Z,100822.56
2023-04-02T13:59:42.143Z,100828.28
2023-04-02T14:02:18.189Z,100827.72
2023-04-02T14:04:52.595Z,100831.47
2023-04-02T14:07:54.001Z,100834.13
2023-04-02T14:11:14.018Z,100839.72
2023-04-02T14:13:56.413Z,100845.59
2023-04-02T14:16:24.995Z,100851.16
2023-04-02T14:19:25.274Z,100855.91
2023-04-02T14:22:26.647Z,100839.59
2023-04-02T14:25:54.461Z,100857.31
2023-04-02T14:28:43.352Z,100853.25
2023-04-02T14:31:37.815Z,100850.31
2023-04-02T14:34:06.308Z,100850.19
2023-04-02T14:37:07.084Z,100845.47
2023-04-02T14:40:35.797Z,100853.66
2023-04-02T14:43:27.916Z,100853.25
2023-04-02T14:46:06.295Z,100865.41
2023-04-02T14:49:05.265Z,100862.75
2023-04-02T14:51:58.889Z,100862.91
2023-04-02T14:54:51.418Z,100859.28
2023-04-02T14:57:30.950Z,100874.34
2023-04-02T15:00:24.231Z,100863.56
2023-04-02T15:03:10.100Z,100874.75
2023-04-02T15:05:51.786Z,100877.84
2023-04-02T15:08:48.399Z,100883.53
2023-04-02T15:11:43.684Z,100883.16
2023-04-02T15:14:32.681Z,100880.63
2023-04-02T15:17:00.872Z,100884.66
2023-04-02T15:19:29.374Z,100877.13
2023-04-02T15:22:29.812Z,100887.88
2023-04-02T15:25:22.194Z,100894.28
2023-04-02T15:28:28.887Z,100898.50
2023-04-02T15:31:00.754Z,100906.56
2023-04-02T15:33:35.555Z,100893.47
2023-04-02T15:36:29.672Z,100905.88
2023-04-02T15:39:18.861Z,100914.25
2023-04-02T15:41:58.927Z,100909.50
2023-04-02T15:44:27.240Z,100911.75
2023-04-02T15:47:36.800Z,100913.25
2023-04-02T15:50:46.537Z,100912.16
2023-04-02T15:53:27.115Z,100916.59
2023-04-02T15:56:26.356Z,100925.09
2023-04-02T15:59:32.306Z,100918.09
2023-04-02T16:02:02.418Z,100932.19
2023-04-02T16:04:48.913Z,100924.25
2023-04-02T16:08:10.020Z,100928.44
2023-04-02T16:10:43.019Z,100925.78
2023-04-02T16:13:34.242Z,100933.63
2023-04-02T16:16:17.355Z,100936.38
2023-04-02T16:19:27.557Z,100934.56
2023-04-02T16:22:12.636Z,100953.34
2023-04-02T16:24:40.765Z,100946.78
2023-04-02T16:27:16.229Z,100945.09
2023-04-02T16:29:59.904Z,100956.34
2023-04-02T16:33:09.378Z,100957.34
2023-04-02T16:36:08.126Z,100957.47
2023-04-02T16:39:21.123Z,100960.03
2023-04-02T16:41:51.855Z,100969.06
2023-04-02T16:45:08.045Z,100964.75
2023-04-02T16:48:06.962Z,100984.84
2023-04-02T16:50:49.504Z,100991.94
2023-04-02T16:53:58.380Z,100986.06
2023-04-02T16:57:06.094Z,100987.03
2023-04-02T16:59:37.379Z,101000.25
2023-04-02T17:02:39.850Z,100993.97
2023-04-02T17:05:25.953Z,101005.69
2023-04-02T17:08:18.046Z,101002.03
2023-04-02T17:10:53.623Z,101003.69
2023-04-02T17:13:44.847Z,101006.72
2023-04-02T17:16:34.014Z,101008.81
2023-04-02T17:19:03.459Z,101015.38
2023-04-02T17:21:33.556Z,101016.47
2023-04-02T17:24:29.482Z,101015.78
2023-04-02T17:27:08.080Z,101013.38
2023-04-02T17:29:40.697Z,101011.97
2023-04-02T17:32:41.096Z,101025.81
2023-04-02T17:35:51.691Z,101027.97
2023-04-02T17:38:32.489Z,101028.56
2023-04-02T17:41:19.326Z,101030.38
2023-04-02T17:44:33.607Z,101030.63
2023-04-02T17:47:24.861Z,101037.47
2023-04-02T17:50:26.579Z,101040.00
2023-04-02T17:53:09.854Z,101042.31
2023-04-02T17:55:57.288Z,101050.69
2023-04-02T17:59:05.578Z,101049.41
2023-04-02T18:02:13.677Z,101057.25
2023-04-02T18:04:54.684Z,101052.75
2023-04-02T18:07:42.419Z,101059.16
2023-04-02T18:10:23.145Z,101070.00
2023-04-02T18:13:18.750Z,101072.66
2023-04-02T18:16:13.793Z,101075.19
2023-04-02T18:18:51.040Z,101077.69
2023-04-02T18:21:34.591Z,101082.03
2023-04-02T18:24:17.427Z,101085.53
2023-04-02T18:27:17.518Z,101089.97
2023-04-02T18:30:25.171Z,101084.44
2023-04-02T18:32:56.666Z,101100.75
2023-04-02T18:35:55.744Z,101095.84
2023-04-02T18:38:43.107Z,101100.31
2023-04-02T18:41:39.577Z,101101.16
2023-04-02T18:44:44.885Z,101097.41
2023-04-02T18:47:40.840Z,101108.84
2023-04-02T18:50:47.451Z,101109.22
2023-04-02T18:53:21.034Z,101116.97
2023-04-02T18:55:58.441Z,101127.41
2023-04-02T18:58:35.944Z,101131.75
2023-04-02T19:01:08.144Z,101136.53
2023-04-02T19:03:51.138Z,101140.13
2023-04-02T19:06:28.631Z,101143.50
2023-04-02T19:09:02.820Z,101153.97
2023-04-02T19:11:31.923Z,101163.16
2023-04-02T19:14:01.416Z,101158.59
2023-04-02T19:17:03.809Z,101161.72
2023-04-02T19:19:43.332Z,101164.06
2023-04-02T19:22:55.141Z,101164.13
2023-04-02T19:26:02.756Z,101163.44
2023-04-02T19:29:24.722Z,101171.88
2023-04-02T19:32:36.817Z,101174.88
2023-04-02T19:35:29.313Z,101183.56
2023-04-02T19:38:26.915Z,101175.97
2023-04-02T19:41:41.432Z,101180.69
2023-04-02T19:44:13.378Z,101177.84
2023-04-02T19:46:42.236Z,101183.72
2023-04-02T19:49:23.941Z,101189.38
2023-04-02T19:51:53.671Z,101200.94
2023-04-02T19:54:22.509Z,101189.00
2023-04-02T19:56:51.449Z,101205.13
2023-04-02T19:59:20.026Z,101202.13
2023-04-02T20:01:48.831Z,101203.81
2023-04-02T20:04:17.386Z,101210.06
2023-04-02T20:06:46.058Z,101202.72
2023-04-02T20:09:14.545Z,101207.31
2023-04-02T20:11:43.037Z,101209.47
2023-04-02T20:14:11.700Z,101210.94
2023-04-02T20:16:40.218Z,101212.84
2023-04-02T20:19:08.798Z,101223.41
2023-04-02T20:21:38.529Z,101231.59
2023-04-02T20:24:08.689Z,101224.72
2023-04-02T20:26:37.667Z,101238.03
2023-04-02T20:29:06.488Z,101242.72
2023-04-02T20:31:36.912Z,101248.50
2023-04-02T20:34:06.851Z,101251.50
2023-04-02T20:36:35.525Z,101244.66
2023-04-02T20:39:07.155Z,101256.53
2023-04-02T20:41:36.065Z,101258.06
2023-04-02T20:44:04.629Z,101253.97
2023-04-02T20:46:33.184Z,101253.63
2023-04-02T20:49:02.388Z,101263.34
2023-04-02T20:51:30.954Z,101265.00
2023-04-02T20:53:59.879Z,101271.50
2023-04-02T20:56:28.425Z,101273.53
2023-04-02T20:58:57.069Z,101270.63
2023-04-02T21:01:30.485Z,101277.38
2023-04-02T21:04:02.265Z,101270.91
2023-04-02T21:06:34.165Z,101290.91
2023-04-02T21:09:06.319Z,101285.63
2023-04-02T21:11:37.522Z,101290.53
2023-04-02T21:14:06.094Z,101294.41
2023-04-02T21:16:35.061Z,101297.41
2023-04-02T21:19:07.149Z,101297.50
2023-04-02T21:21:37.143Z,101295.94
2023-04-02T21:24:08.564Z,101305.88
2023-04-02T21:26:41.284Z,101313.09
2023-04-02T21:29:11.673Z,101309.31
2023-04-02T21:31:42.230Z,101309.94
2023-04-02T21:34:14.878Z,101322.31
2023-04-02T21:36:45.918Z,101310.66
2023-04-02T21:39:19.972Z,101312.69
2023-04-02T21:41:51.173Z,101311.00
2023-04-02T21:44:22.287Z,101324.25
2023-04-02T21:46:53.702Z,101324.25
2023-04-02T21:49:23.511Z,101316.44
2023-04-02T21:51:52.653Z,101326.13
2023-04-02T21:54:21.364Z,101324.25
2023-04-02T21:56:50.729Z,101328.91
2023-04-02T21:59:19.832Z,101330.38
2023-04-02T22:01:52.353Z,101339.22
2023-04-02T22:04:26.598Z,101342.22
2023-04-02T22:06:55.483Z,101335.38
2023-04-02T22:09:26.623Z,101333.59
2023-04-02T22:11:59.177Z,101348.13
2023-04-02T22:14:28.540Z,101344.47
2023-04-02T22:16:58.774Z,101339.84
2023-04-02T22:19:28.251Z,101346.38
2023-04-02T22:21:56.978Z,101355.03
2023-04-02T22:24:25.802Z,101349.25
2023-04-02T22:26:54.620Z,101363.38
2023-04-02T22:29:23.761Z,101352.75
2023-04-02T22:31:52.399Z,101351.69
2023-04-02T22:34:21.117Z,101351.13
2023-04-02T22:36:49.625Z,101358.09
2023-04-02T22:39:35.549Z,101355.16
2023-04-02T22:42:04.325Z,101356.31
2023-04-02T22:44:32.821Z,101353.16
2023-04-02T22:47:01.329Z,101360.97
2023-04-02T22:49:29.829Z,101363.16
2023-04-02T22:51:58.347Z,101359.03
2023-04-02T22:54:26.807Z,101358.19
2023-04-02T22:56:55.380Z,101365.38
2023-04-02T22:59:23.965Z,101374.63
2023-04-02T23:01:52.632Z,101376.75
2023-04-02T23:04:21.295Z,101369.06
2023-04-02T23:06:49.805Z,101370.63
2023-04-02T23:09:18.322Z,101378.09
2023-04-02T23:11:47.118Z,101371.97
2023-04-02T23:14:15.653Z,101380.75
2023-04-02T23:16:44.451Z,101383.03
2023-04-02T23:19:13.234Z,101380.66
2023-04-02T23:21:41.798Z,101383.88
2023-04-02T23:24:12.261Z,101388.28
2023-04-02T23:26:40.943Z,101392.50
2023-04-02T23:29:11.595Z,101390.06
2023-04-02T23:31:40.310Z,101388.06
2023-04-02T23:34:10.454Z,101389.03
2023-04-02T23:36:38.936Z,101391.47
2023-04-02T23:39:13.955Z,101391.47
2023-04-02T23:41:44.058Z,101396.69
2023-04-02T23:44:12.956Z,101386.34
2023-04-02T23:46:41.586Z,101388.59
2023-04-02T23:49:12.603Z,101401.34
2023-04-02T23:51:41.471Z,101387.94
2023-04-02T23:54:10.112Z,101400.19
2023-04-02T23:56:38.747Z,101402.97
2023-04-02T23:59:07.548Z,101401.09
